createdAt,value
2023-01-08T00:00:27.248Z,81.58
2023-01-08T00:02:56.631Z,82.25
2023-01-08T00:05:25.813Z,81.77
2023-01-08T00:07:52.873Z,81.66
2023-01-08T00:10:19.815Z,81.81
2023-01-08T00:12:46.838Z,81.79
2023-01-08T00:15:13.876Z,80.68
2023-01-08T00:17:40.804Z,80.64
2023-01-08T00:20:08.417Z,80.49
2023-01-08T00:22:35.428Z,81.62
2023-01-08T00:25:05.177Z,80.95
2023-01-08T00:27:32.163Z,80.89
2023-01-08T00:29:59.159Z,80.87
2023-01-08T00:32:26.429Z,81.05
2023-01-08T00:34:58.397Z,81.39
2023-01-08T00:37:25.460Z,81.07
2023-01-08T00:39:54.781Z,80.95
2023-01-08T00:42:21.987Z,80.99
2023-01-08T00:44:48.960Z,80.69
2023-01-08T00:47:15.897Z,80.56
2023-01-08T00:49:42.828Z,80.67
2023-01-08T00:52:12.684Z,80.91
2023-01-08T00:54:39.720Z,80.26
2023-01-08T00:57:06.770Z,80.84
2023-01-08T00:59:33.675Z,80.94
2023-01-08T01:02:05.485Z,80.58
2023-01-08T01:04:37.283Z,82.28
2023-01-08T01:07:04.424Z,82.89
2023-01-08T01:09:33.854Z,82.57
2023-01-08T01:12:03.032Z,82.10
2023-01-08T01:14:32.583Z,83.13
2023-01-08T01:16:59.628Z,83.83
2023-01-08T01:19:26.653Z,83.73
2023-01-08T01:21:53.497Z,84.54
2023-01-08T01:24:22.029Z,83.71
2023-01-08T01:26:51.116Z,83.50
2023-01-08T01:29:18.068Z,83.70
2023-01-08T01:31:45.217Z,83.76
2023-01-08T01:34:12.246Z,84.49
2023-01-08T01:36:39.093Z,84.42
2023-01-08T01:39:06.337Z,84.18
2023-01-08T01:41:43.991Z,84.04
2023-01-08T01:44:38.256Z,83.37
2023-01-08T01:47:28.644Z,83.67
2023-01-08T01:50:13.060Z,83.22
2023-01-08T01:53:13.182Z,82.28
2023-01-08T01:55:43.850Z,82.10
2023-01-08T01:58:18.933Z,82.46
2023-01-08T02:00:46.136Z,81.24
2023-01-08T02:03:15.367Z,80.76
2023-01-08T02:06:08.420Z,81.30
2023-01-08T02:09:00.880Z,80.92
2023-01-08T02:12:18.692Z,80.72
2023-01-08T02:15:25.732Z,82.16
2023-01-08T02:18:22.899Z,81.98
2023-01-08T02:21:07.625Z,81.06
2023-01-08T02:23:46.392Z,80.33
2023-01-08T02:26:31.284Z,80.17
2023-01-08T02:29:04.632Z,79.91
2023-01-08T02:31:34.412Z,80.66
2023-01-08T02:34:04.640Z,79.86
2023-01-08T02:36:39.197Z,80.01
2023-01-08T02:39:20.672Z,78.99
2023-01-08T02:42:16.347Z,78.91
2023-01-08T02:44:56.450Z,78.82
2023-01-08T02:47:30.536Z,77.79
2023-01-08T02:50:16.009Z,78.09
2023-01-08T02:53:24.513Z,77.63
2023-01-08T02:56:06.162Z,77.41
2023-01-08T02:58:35.545Z,78.03
2023-01-08T03:01:08.578Z,77.37
2023-01-08T03:03:42.336Z,78.12
2023-01-08T03:06:13.505Z,77.50
2023-01-08T03:08:44.341Z,78.00
2023-01-08T03:11:14.299Z,78.36
2023-01-08T03:14:10.705Z,78.88
2023-01-08T03:16:49.733Z,80.53
2023-01-08T03:19:33.637Z,78.71
2023-01-08T03:22:04.693Z,79.74
2023-01-08T03:24:38.306Z,79.60
2023-01-08T03:27:14.164Z,80.62
2023-01-08T03:29:41.565Z,79.48
2023-01-08T03:32:14.387Z,79.21
2023-01-08T03:34:43.982Z,80.15
2023-01-08T03:37:13.695Z,79.78
2023-01-08T03:40:10.938Z,79.28
2023-01-08T03:42:38.083Z,80.05
2023-01-08T03:45:08.127Z,80.68
2023-01-08T03:47:37.743Z,80.74
2023-01-08T03:50:11.453Z,82.20
2023-01-08T03:52:38.453Z,81.70
2023-01-08T03:55:05.831Z,82.09
2023-01-08T03:57:35.206Z,81.61
2023-01-08T04:00:06.172Z,81.89
2023-01-08T04:02:33.330Z,81.69
2023-01-08T04:05:00.729Z,81.73
2023-01-08T04:07:27.735Z,81.78
2023-01-08T04:09:54.648Z,81.30
2023-01-08T04:12:24.438Z,81.33
2023-01-08T04:14:56.150Z,80.65
2023-01-08T04:17:25.067Z,79.92
2023-01-08T04:19:52.036Z,80.57
2023-01-08T04:22:18.895Z,81.42
2023-01-08T04:24:45.872Z,81.70
2023-01-08T04:27:12.727Z,81.88
2023-01-08T04:29:39.719Z,80.34
2023-01-08T04:32:08.810Z,79.63
2023-01-08T04:34:40.126Z,80.55
2023-01-08T04:37:09.967Z,80.75
2023-01-08T04:39:38.988Z,79.43
2023-01-08T04:42:08.278Z,78.42
2023-01-08T04:44:37.603Z,79.27
2023-01-08T04:47:04.457Z,79.24
2023-01-08T04:49:33.634Z,80.43
2023-01-08T04:52:03.453Z,79.73
2023-01-08T04:54:30.315Z,80.11
2023-01-08T04:56:57.248Z,80.67
2023-01-08T04:59:26.470Z,79.95
2023-01-08T05:01:56.809Z,80.87
2023-01-08T05:04:23.794Z,79.43
2023-01-08T05:06:52.959Z,79.44
2023-01-08T05:09:24.336Z,78.75
2023-01-08T05:11:55.847Z,78.92
2023-01-08T05:14:22.718Z,80.27
2023-01-08T05:16:49.550Z,81.23
2023-01-08T05:19:18.699Z,80.84
2023-01-08T05:21:48.072Z,81.05
2023-01-08T05:24:15.030Z,80.72
2023-01-08T05:26:41.880Z,80.17
2023-01-08T05:29:10.372Z,79.42
2023-01-08T05:31:37.376Z,79.71
2023-01-08T05:34:04.430Z,78.77
2023-01-08T05:36:31.465Z,79.00
2023-01-08T05:38:58.424Z,78.84
2023-01-08T05:41:25.365Z,78.86
2023-01-08T05:43:52.440Z,77.94
2023-01-08T05:46:21.881Z,78.61
2023-01-08T05:48:51.063Z,79.51
2023-01-08T05:51:21.135Z,81.02
2023-01-08T05:53:50.062Z,79.81
2023-01-08T05:56:22.352Z,80.34
2023-01-08T05:58:49.559Z,80.23
2023-01-08T06:01:19.045Z,80.19
2023-01-08T06:03:48.532Z,81.03
2023-01-08T06:06:18.513Z,81.47
2023-01-08T06:08:45.467Z,80.75
2023-01-08T06:11:15.091Z,80.90
2023-01-08T06:13:43.931Z,82.13
2023-01-08T06:16:13.800Z,81.69
2023-01-08T06:18:41.109Z,81.74
2023-01-08T06:21:13.314Z,81.33
2023-01-08T06:23:41.149Z,81.00
2023-01-08T06:26:10.681Z,82.11
2023-01-08T06:28:37.525Z,80.63
2023-01-08T06:31:05.015Z,81.16
2023-01-08T06:33:34.609Z,80.43
2023-01-08T06:36:04.666Z,81.29
2023-01-08T06:38:36.050Z,82.26
2023-01-08T06:41:11.151Z,81.64
2023-01-08T06:43:41.201Z,81.29
2023-01-08T06:46:09.510Z,82.24
2023-01-08T06:48:39.521Z,81.20
2023-01-08T06:51:07.081Z,80.76
2023-01-08T06:53:36.680Z,82.19
2023-01-08T06:56:05.170Z,82.06
2023-01-08T06:58:34.599Z,81.56
2023-01-08T07:01:03.740Z,82.09
2023-01-08T07:03:33.712Z,81.64
2023-01-08T07:06:03.028Z,82.22
2023-01-08T07:08:34.998Z,82.48
2023-01-08T07:11:05.295Z,81.45
2023-01-08T07:13:34.817Z,82.28
2023-01-08T07:16:11.908Z,82.75
2023-01-08T07:18:42.294Z,82.66
2023-01-08T07:21:11.737Z,82.77
2023-01-08T07:23:45.553Z,82.80
2023-01-08T07:26:15.047Z,84.08
2023-01-08T07:28:42.537Z,85.40
2023-01-08T07:31:14.245Z,84.51
2023-01-08T07:33:41.142Z,85.02
2023-01-08T07:36:08.664Z,86.80
2023-01-08T07:38:35.528Z,86.13
2023-01-08T07:41:05.499Z,84.56
2023-01-08T07:43:32.399Z,85.79
2023-01-08T07:46:05.181Z,86.34
2023-01-08T07:48:34.668Z,87.46
2023-01-08T07:51:09.190Z,88.61
2023-01-08T07:53:38.755Z,88.20
2023-01-08T07:56:11.777Z,89.14
2023-01-08T07:58:39.286Z,89.23
2023-01-08T08:01:10.902Z,90.22
2023-01-08T08:03:43.708Z,90.53
2023-01-08T08:06:11.139Z,90.63
2023-01-08T08:08:38.121Z,91.52
2023-01-08T08:11:05.637Z,91.62
2023-01-08T08:13:32.560Z,91.58
2023-01-08T08:16:06.195Z,91.81
2023-01-08T08:18:36.129Z,92.20
2023-01-08T08:21:03.935Z,92.58
2023-01-08T08:23:32.917Z,92.65
2023-01-08T08:26:04.610Z,92.83
2023-01-08T08:28:33.840Z,94.03
2023-01-08T08:31:02.894Z,93.50
2023-01-08T08:33:32.106Z,94.23
2023-01-08T08:36:01.512Z,95.22
2023-01-08T08:38:30.975Z,95.31
2023-01-08T08:40:58.022Z,97.28
2023-01-08T08:43:24.910Z,96.81
2023-01-08T08:45:51.794Z,97.55
2023-01-08T08:48:18.873Z,96.83
2023-01-08T08:50:47.829Z,97.81
2023-01-08T08:53:15.227Z,98.91
2023-01-08T08:55:42.219Z,99.36
2023-01-08T08:58:12.573Z,99.97
2023-01-08T09:00:43.877Z,99.17
2023-01-08T09:03:15.665Z,100.00
2023-01-08T09:05:47.653Z,100.00
2023-01-08T09:08:14.624Z,100.00
2023-01-08T09:10:42.368Z,100.00
2023-01-08T09:13:10.178Z,100.00
2023-01-08T09:15:39.707Z,100.00
2023-01-08T09:18:08.838Z,100.00
2023-01-08T09:20:35.837Z,100.00
2023-01-08T09:23:03.400Z,100.00
2023-01-08T09:25:33.187Z,100.00
2023-01-08T09:28:06.038Z,100.00
2023-01-08T09:30:33.858Z,100.00
2023-01-08T09:33:05.635Z,100.00
2023-01-08T09:35:33.761Z,100.00
2023-01-08T09:38:00.740Z,100.00
2023-01-08T09:41:10.036Z,100.00
2023-01-08T09:43:40.857Z,100.00
2023-01-08T09:46:09.609Z,100.00
2023-01-08T09:48:39.800Z,100.00
2023-01-08T09:51:15.475Z,100.00
2023-01-08T09:53:44.093Z,100.00
2023-01-08T09:56:17.285Z,100.00
2023-01-08T09:58:52.182Z,100.00
2023-01-08T10:01:28.975Z,98.71
2023-01-08T10:04:23.789Z,99.17
2023-01-08T10:07:00.272Z,97.43
2023-01-08T10:09:30.545Z,97.48
2023-01-08T10:12:01.970Z,98.46
2023-01-08T10:14:33.380Z,97.70
2023-01-08T10:17:17.605Z,97.75
2023-01-08T10:19:45.668Z,97.30
2023-01-08T10:22:19.184Z,97.52
2023-01-08T10:24:48.917Z,96.98
2023-01-08T10:27:22.480Z,95.10
2023-01-08T10:29:52.834Z,94.94
2023-01-08T10:32:31.863Z,94.46
2023-01-08T10:35:03.942Z,91.01
2023-01-08T10:37:44.640Z,89.48
2023-01-08T10:40:31.019Z,88.16
2023-01-08T10:43:29.020Z,88.83
2023-01-08T10:46:07.819Z,86.69
2023-01-08T10:48:40.059Z,86.00
2023-01-08T10:51:31.776Z,84.89
2023-01-08T10:54:24.127Z,83.39
2023-01-08T10:56:53.557Z,78.89
2023-01-08T10:59:23.015Z,74.90
2023-01-08T11:01:58.279Z,76.41
2023-01-08T11:04:33.965Z,78.38
2023-01-08T11:07:05.733Z,74.34
2023-01-08T11:09:49.774Z,74.07
2023-01-08T11:12:35.641Z,75.97
2023-01-08T11:15:15.324Z,79.66
2023-01-08T11:17:42.284Z,81.85
2023-01-08T11:20:28.920Z,81.75
2023-01-08T11:23:31.315Z,80.14
2023-01-08T11:26:08.624Z,78.72
2023-01-08T11:29:08.095Z,79.91
2023-01-08T11:31:55.923Z,80.66
2023-01-08T11:34:54.696Z,82.14
2023-01-08T11:37:39.093Z,83.32
2023-01-08T11:40:22.143Z,77.47
2023-01-08T11:43:00.311Z,72.63
2023-01-08T11:45:36.195Z,70.28
2023-01-08T11:48:21.707Z,73.11
2023-01-08T11:51:22.160Z,76.00
2023-01-08T11:54:09.427Z,74.63
2023-01-08T11:56:36.261Z,79.16
2023-01-08T11:59:32.152Z,80.58
2023-01-08T12:02:05.328Z,82.04
2023-01-08T12:04:35.084Z,83.16
2023-01-08T12:07:23.513Z,84.95
2023-01-08T12:10:11.027Z,84.72
2023-01-08T12:12:44.736Z,82.64
2023-01-08T12:15:36.051Z,83.52
2023-01-08T12:18:26.966Z,84.18
2023-01-08T12:21:24.561Z,83.99
2023-01-08T12:24:55.850Z,85.49
2023-01-08T12:28:00.168Z,83.82
2023-01-08T12:31:00.570Z,82.88
2023-01-08T12:34:00.981Z,77.77
2023-01-08T12:36:36.734Z,77.47
2023-01-08T12:39:14.193Z,76.25
2023-01-08T12:41:49.242Z,71.56
2023-01-08T12:44:26.905Z,69.18
2023-01-08T12:47:03.535Z,63.51
2023-01-08T12:50:06.888Z,56.87
2023-01-08T12:53:07.146Z,55.22
2023-01-08T12:56:03.337Z,62.16
2023-01-08T12:58:51.267Z,62.76
2023-01-08T13:01:51.356Z,61.87
2023-01-08T13:04:19.273Z,62.68
2023-01-08T13:07:06.371Z,64.66
2023-01-08T13:09:33.617Z,66.83
2023-01-08T13:12:01.301Z,63.61
2023-01-08T13:14:28.576Z,62.45
2023-01-08T13:17:14.459Z,58.53
2023-01-08T13:19:53.654Z,56.15
2023-01-08T13:22:29.531Z,54.42
2023-01-08T13:25:37.331Z,53.34
2023-01-08T13:28:31.625Z,50.16
2023-01-08T13:31:29.316Z,48.87
2023-01-08T13:33:57.534Z,48.53
2023-01-08T13:36:28.378Z,46.20
2023-01-08T13:39:18.307Z,47.05
2023-01-08T13:41:58.582Z,47.88
2023-01-08T13:44:36.436Z,47.87
2023-01-08T13:47:24.264Z,49.97
2023-01-08T13:49:57.924Z,48.04
2023-01-08T13:52:34.080Z,46.56
2023-01-08T13:55:05.576Z,48.96
2023-01-08T13:57:44.264Z,48.86
2023-01-08T14:00:41.208Z,49.36
2023-01-08T14:03:33.921Z,52.09
2023-01-08T14:06:27.074Z,52.76
2023-01-08T14:09:02.344Z,48.85
2023-01-08T14:11:50.467Z,48.80
2023-01-08T14:14:23.092Z,49.23
2023-01-08T14:16:53.085Z,49.67
2023-01-08T14:19:26.151Z,50.71
2023-01-08T14:21:58.760Z,51.75
2023-01-08T14:24:26.687Z,50.70
2023-01-08T14:26:58.606Z,51.74
2023-01-08T14:29:32.819Z,54.63
2023-01-08T14:32:01.373Z,57.51
2023-01-08T14:34:31.428Z,59.48
2023-01-08T14:36:58.511Z,62.76
2023-01-08T14:39:39.044Z,64.04
2023-01-08T14:42:44.600Z,65.02
2023-01-08T14:45:20.477Z,67.36
2023-01-08T14:47:50.985Z,69.70
2023-01-08T14:50:21.802Z,71.76
2023-01-08T14:52:49.805Z,71.52
2023-01-08T14:55:24.930Z,73.16
2023-01-08T14:57:59.188Z,73.58
2023-01-08T15:00:30.824Z,72.98
2023-01-08T15:03:00.445Z,73.82
2023-01-08T15:05:31.022Z,74.53
2023-01-08T15:08:20.879Z,75.89
2023-01-08T15:11:15.490Z,77.27
2023-01-08T15:14:07.833Z,79.66
2023-01-08T15:16:40.253Z,78.83
2023-01-08T15:19:56.605Z,78.94
2023-01-08T15:22:27.510Z,79.63
2023-01-08T15:25:05.007Z,79.45
2023-01-08T15:27:34.410Z,81.08
2023-01-08T15:30:06.411Z,81.03
2023-01-08T15:32:37.337Z,81.71
2023-01-08T15:35:17.662Z,81.72
2023-01-08T15:37:45.362Z,81.77
2023-01-08T15:40:13.227Z,82.59
2023-01-08T15:43:02.127Z,82.68
2023-01-08T15:45:36.664Z,81.82
2023-01-08T15:48:07.031Z,81.55
2023-01-08T15:50:38.681Z,81.90
2023-01-08T15:53:22.197Z,82.63
2023-01-08T15:55:49.683Z,83.00
2023-01-08T15:58:17.010Z,82.21
2023-01-08T16:00:47.168Z,81.86
2023-01-08T16:03:15.360Z,82.35
2023-01-08T16:05:42.368Z,82.59
2023-01-08T16:08:13.244Z,82.74
2023-01-08T16:10:40.388Z,83.56
2023-01-08T16:13:07.292Z,83.45
2023-01-08T16:15:34.303Z,84.90
2023-01-08T16:18:03.457Z,83.25
2023-01-08T16:20:30.330Z,83.97
2023-01-08T16:22:59.891Z,84.75
2023-01-08T16:25:27.041Z,84.91
2023-01-08T16:27:56.404Z,85.81
2023-01-08T16:30:27.817Z,85.91
2023-01-08T16:32:54.940Z,85.39
2023-01-08T16:35:22.282Z,85.62
2023-01-08T16:37:49.258Z,88.65
2023-01-08T16:40:16.779Z,89.17
2023-01-08T16:42:46.163Z,87.81
2023-01-08T16:45:13.048Z,90.67
2023-01-08T16:47:40.102Z,91.46
2023-01-08T16:50:08.690Z,91.05
2023-01-08T16:52:38.890Z,92.06
2023-01-08T16:55:10.815Z,92.31
2023-01-08T16:57:40.073Z,92.82
2023-01-08T17:00:09.004Z,92.70
2023-01-08T17:02:38.987Z,93.10
2023-01-08T17:05:08.823Z,94.68
2023-01-08T17:07:37.782Z,95.39
2023-01-08T17:10:08.252Z,95.22
2023-01-08T17:12:37.697Z,94.34
2023-01-08T17:15:05.206Z,96.37
2023-01-08T17:17:35.049Z,96.42
2023-01-08T17:20:06.969Z,97.06
2023-01-08T17:22:34.058Z,97.73
2023-01-08T17:25:06.597Z,97.99
2023-01-08T17:27:37.788Z,97.74
2023-01-08T17:30:05.754Z,96.90
2023-01-08T17:32:32.723Z,96.23
2023-01-08T17:35:04.171Z,96.37
2023-01-08T17:37:32.752Z,96.51
2023-01-08T17:40:03.060Z,96.25
2023-01-08T17:42:30.403Z,95.38
2023-01-08T17:45:03.127Z,96.25
2023-01-08T17:47:35.432Z,95.53
2023-01-08T17:50:05.989Z,95.46
2023-01-08T17:52:33.195Z,96.07
2023-01-08T17:55:00.286Z,95.01
2023-01-08T17:57:31.646Z,94.24
2023-01-08T18:00:01.339Z,94.67
2023-01-08T18:02:28.500Z,94.99
2023-01-08T18:04:55.789Z,96.53
2023-01-08T18:07:23.928Z,96.88
2023-01-08T18:09:55.091Z,97.82
2023-01-08T18:12:22.902Z,98.53
2023-01-08T18:14:50.029Z,98.71
2023-01-08T18:17:19.203Z,98.88
2023-01-08T18:19:46.260Z,98.91
2023-01-08T18:22:13.227Z,97.49
2023-01-08T18:24:40.501Z,99.61
2023-01-08T18:27:10.452Z,99.61
2023-01-08T18:29:40.172Z,98.44
2023-01-08T18:32:10.111Z,95.93
2023-01-08T18:34:40.699Z,95.84
2023-01-08T18:37:07.618Z,94.63
2023-01-08T18:39:35.001Z,94.42
2023-01-08T18:42:20.414Z,94.75
2023-01-08T18:44:52.720Z,94.29
2023-01-08T18:47:20.710Z,93.34
2023-01-08T18:49:47.796Z,93.79
2023-01-08T18:52:15.679Z,94.39
2023-01-08T18:54:42.823Z,94.48
2023-01-08T18:57:10.321Z,94.39
2023-01-08T18:59:37.520Z,94.54
2023-01-08T19:02:05.191Z,95.19
2023-01-08T19:04:34.925Z,95.28
2023-01-08T19:07:02.036Z,95.57
2023-01-08T19:09:29.032Z,95.52
2023-01-08T19:11:55.992Z,94.79
2023-01-08T19:14:22.998Z,94.53
2023-01-08T19:16:51.459Z,94.80
2023-01-08T19:19:19.942Z,94.51
2023-01-08T19:21:47.232Z,93.69
2023-01-08T19:24:17.047Z,93.76
2023-01-08T19:26:44.843Z,92.98
2023-01-08T19:29:13.975Z,93.35
2023-01-08T19:31:40.925Z,93.37
2023-01-08T19:34:07.922Z,94.64
2023-01-08T19:36:37.297Z,94.04
2023-01-08T19:39:05.322Z,93.42
2023-01-08T19:41:50.540Z,94.02
2023-01-08T19:44:17.418Z,94.24
2023-01-08T19:46:44.330Z,94.35
2023-01-08T19:49:13.852Z,93.93
2023-01-08T19:51:43.746Z,92.60
2023-01-08T19:54:12.709Z,93.77
2023-01-08T19:56:39.686Z,93.89
2023-01-08T19:59:06.739Z,93.22
2023-01-08T20:01:34.014Z,94.20
2023-01-08T20:04:05.536Z,94.30
2023-01-08T20:06:37.418Z,94.99
2023-01-08T20:09:05.510Z,94.21
2023-01-08T20:11:35.544Z,95.99
2023-01-08T20:14:05.305Z,96.00
2023-01-08T20:16:32.530Z,96.46
2023-01-08T20:19:04.544Z,96.18
2023-01-08T20:21:36.714Z,95.81
2023-01-08T20:24:15.543Z,96.51
2023-01-08T20:26:45.962Z,95.08
2023-01-08T20:29:15.063Z,94.97
2023-01-08T20:31:44.161Z,95.10
2023-01-08T20:34:15.609Z,94.90
2023-01-08T20:36:46.891Z,95.23
2023-01-08T20:39:16.972Z,94.74
2023-01-08T20:41:55.372Z,95.40
2023-01-08T20:44:28.382Z,95.59
2023-01-08T20:46:58.446Z,95.09
2023-01-08T20:49:26.996Z,95.02
2023-01-08T20:51:59.889Z,95.18
2023-01-08T20:54:28.918Z,95.73
2023-01-08T20:57:00.092Z,94.16
2023-01-08T20:59:29.856Z,94.11
2023-01-08T21:01:57.122Z,94.67
2023-01-08T21:04:24.732Z,93.62
2023-01-08T21:06:51.856Z,93.83
2023-01-08T21:09:18.784Z,93.82
2023-01-08T21:11:46.142Z,92.90
2023-01-08T21:14:16.072Z,92.69
2023-01-08T21:16:43.215Z,93.32
2023-01-08T21:19:10.727Z,92.05
2023-01-08T21:21:40.757Z,92.53
2023-01-08T21:24:11.007Z,92.49
2023-01-08T21:26:39.115Z,91.60
2023-01-08T21:29:12.286Z,91.97
2023-01-08T21:31:40.275Z,92.13
2023-01-08T21:34:08.815Z,91.96
2023-01-08T21:36:40.465Z,92.21
2023-01-08T21:39:10.068Z,92.49
2023-01-08T21:41:55.361Z,92.12
2023-01-08T21:44:43.792Z,90.15
2023-01-08T21:47:18.125Z,90.11
2023-01-08T21:49:46.645Z,91.01
2023-01-08T21:52:32.971Z,92.82
2023-01-08T21:55:00.667Z,93.32
2023-01-08T21:57:30.422Z,93.17
2023-01-08T21:59:57.730Z,93.27
2023-01-08T22:02:25.791Z,93.85
2023-01-08T22:04:56.971Z,93.90
2023-01-08T22:07:27.642Z,93.46
2023-01-08T22:09:54.998Z,93.48
2023-01-08T22:12:23.296Z,94.50
2023-01-08T22:14:56.006Z,95.07
2023-01-08T22:17:25.723Z,96.78
2023-01-08T22:19:55.906Z,97.72
2023-01-08T22:22:27.359Z,97.28
2023-01-08T22:24:54.822Z,98.78
2023-01-08T22:27:22.173Z,98.72
2023-01-08T22:29:49.321Z,99.56
2023-01-08T22:32:18.796Z,99.35
2023-01-08T22:34:45.675Z,98.50
2023-01-08T22:37:16.836Z,97.76
2023-01-08T22:39:43.721Z,98.90
2023-01-08T22:42:10.577Z,98.58
2023-01-08T22:44:37.440Z,98.51
2023-01-08T22:47:06.016Z,98.02
2023-01-08T22:49:33.492Z,99.37
2023-01-08T22:52:03.109Z,99.90
2023-01-08T22:54:30.250Z,100.00
2023-01-08T22:56:57.186Z,100.00
2023-01-08T22:59:26.393Z,100.00
2023-01-08T23:01:53.402Z,100.00
2023-01-08T23:04:20.331Z,100.00
2023-01-08T23:06:49.607Z,100.00
2023-01-08T23:09:17.002Z,100.00
2023-01-08T23:11:46.921Z,100.00
2023-01-08T23:14:16.511Z,99.88
2023-01-08T23:16:43.710Z,99.88
2023-01-08T23:19:10.769Z,100.00
2023-01-08T23:21:38.660Z,100.00
2023-01-08T23:24:14.894Z,100.00
2023-01-08T23:26:42.450Z,100.00
2023-01-08T23:29:10.659Z,100.00
2023-01-08T23:31:38.395Z,99.44
2023-01-08T23:34:06.581Z,100.00
2023-01-08T23:36:36.032Z,100.00
2023-01-08T23:39:03.756Z,100.00
2023-01-08T23:41:35.026Z,99.14
2023-01-08T23:44:06.418Z,98.69
2023-01-08T23:46:34.228Z,100.00
2023-01-08T23:49:07.082Z,100.00
2023-01-08T23:51:37.024Z,99.65
2023-01-08T23:54:06.205Z,98.04
2023-01-08T23:56:33.269Z,97.36
2023-01-08T23:59:03.094Z,97.84
